South Hadley Falls, Massachusetts
Current Conditions -  °F | °C
As of 12:58 PM on Thursday 30 Oct 2014 (Local Time) from KCEF Reporting Station
Scattered Clouds Scattered Clouds  
Wind Chill: 55°   Ceiling: Unl
Heat Index: 55°   Visibility: 10mi
Dew Point: 35°   Wind: 10mph
Humidity: 47%   Direction: 280°W
Pressure: 29.94"   Gusts: 18mph
Location:  42.2564°N, 72.5775°W
Report Text: KCEF 301658Z AUTO 28009G16KT 10SM SCT050 13/02 A2994 RMK AO2 SLP146 T01300018
Loading
Personal Weather Stations






























Interactive Weather Map
Tropical Storm Tracking
New forecast layout! Learn more

10-Day Weather Forecast

Advertisements
Track Severe Weather on mobile